Time;durP1;ratioP1;P1;durP2;ratioP2;P2;SDS_P1;SDS_P2;PMS_P1;PMS_P2;Temp;Humidity;BMP_temperature;BMP_pressure;BME280_temperature;BME280_humidity;BME280_pressure;Samples;Min_cycle;Max_cycle;Signal;HPM_P1;HPM_P2
2023/02/08 00:01:12;;;;;;;;;;;;;;;-1.52;79.83;103656.35;104570;1293;61324;-77
2023/02/08 00:03:58;;;;;;;;;;;;;;;-1.49;79.68;103661.16;104742;1292;75418;-78
2023/02/08 00:06:44;;;;;;;;;;;;;;;-1.45;79.68;103662.66;104730;1294;67404;-77
2023/02/08 00:09:30;;;;;;;;;;;;;;;-1.42;79.72;103661.39;104733;1292;71351;-77
2023/02/08 00:12:17;;;;;;;;;;;;;;;-1.40;79.71;103658.19;104735;1293;61251;-77
2023/02/08 00:15:04;;;;;;;;;;;;;;;-1.37;79.73;103660.41;104624;1294;61128;-77
2023/02/08 00:17:50;;;;;;;;;;;;;;;-1.35;79.73;103659.94;104635;1294;73231;-77
2023/02/08 00:20:40;;;;;;;;;;;;;;;-1.34;79.70;103657.16;104599;1293;70099;-77
2023/02/08 00:23:27;;;;;;;;;;;;;;;-1.31;79.66;103655.66;104757;1294;73949;-77
2023/02/08 00:26:13;;;;;;;;;;;;;;;-1.29;79.68;103656.70;104780;1293;61138;-77
2023/02/08 00:28:59;;;;;;;;;;;;;;;-1.27;79.64;103655.65;104638;1294;59437;-77
2023/02/08 00:31:45;;;;;;;;;;;;;;;-1.26;79.66;103655.70;104688;1292;76020;-77
2023/02/08 00:34:34;;;;;;;;;;;;;;;-1.25;79.59;103655.30;104756;1293;70032;-77
2023/02/08 00:37:20;;;;;;;;;;;;;;;-1.24;79.64;103656.41;104563;1295;71398;-77
2023/02/08 00:40:07;;;;;;;;;;;;;;;-1.23;79.63;103659.05;104534;1294;61226;-77
2023/02/08 00:42:53;;;;;;;;;;;;;;;-1.20;79.67;103658.54;105720;1293;59794;-77
2023/02/08 00:45:40;;;;;;;;;;;;;;;-1.20;79.58;103661.83;105770;1293;73380;-78
2023/02/08 00:48:26;;;;;;;;;;;;;;;-1.19;79.57;103659.02;105605;1294;68582;-78
2023/02/08 00:51:14;;;;;;;;;;;;;;;-1.18;79.51;103657.73;105665;1294;71418;-78
2023/02/08 00:54:00;;;;;;;;;;;;;;;-1.16;79.50;103655.00;105585;1294;60158;-78
2023/02/08 00:56:45;;;;;;;;;;;;;;;-1.16;79.50;103657.07;105724;1294;58954;-78
2023/02/08 00:59:31;;;;;;;;;;;;;;;-1.15;79.48;103655.14;105645;1293;74555;-78
2023/02/08 01:02:18;;;;;;;;;;;;;;;-1.13;79.45;103658.44;105743;1293;68483;-78
2023/02/08 01:05:04;;;;;;;;;;;;;;;-1.14;79.37;103656.53;105045;1294;72684;-77
2023/02/08 01:07:51;;;;;;;;;;;;;;;-1.15;79.40;103660.33;104460;1294;61346;-77
2023/02/08 01:10:37;;;;;;;;;;;;;;;-1.14;79.38;103666.83;104559;1294;59568;-77
2023/02/08 01:13:23;;;;;;;;;;;;;;;-1.14;79.58;103667.41;104529;1294;73216;-77
2023/02/08 01:16:11;;;;;;;;;;;;;;;-1.13;79.42;103665.77;104507;1294;69228;-77
2023/02/08 01:19:03;;;;;;;;;;;;;;;-1.12;79.49;103672.58;100862;1297;5003284;-79
2023/02/08 01:21:49;;;;;;;;;;;;;;;-1.11;79.48;103675.09;104668;1294;61239;-77
2023/02/08 01:24:35;;;;;;;;;;;;;;;-1.10;79.46;103681.95;104624;1294;61151;-77
2023/02/08 01:27:21;;;;;;;;;;;;;;;-1.10;79.42;103685.45;104669;1293;72686;-78
2023/02/08 01:30:08;;;;;;;;;;;;;;;-1.13;79.36;103689.45;104686;1294;67164;-77
2023/02/08 01:32:54;;;;;;;;;;;;;;;-1.14;79.48;103687.30;104486;1294;74044;-77
2023/02/08 01:35:40;;;;;;;;;;;;;;;-1.17;79.40;103685.11;104663;1297;61061;-77
2023/02/08 01:38:26;;;;;;;;;;;;;;;-1.18;79.38;103686.86;104777;1293;60238;-77
2023/02/08 01:41:16;;;;;;;;;;;;;;;-1.17;79.47;103683.86;104721;1294;73889;-77
2023/02/08 01:44:23;;;;;;;;;;;;;;;-1.18;79.32;103682.61;104725;1292;68209;-77
2023/02/08 01:47:14;;;;;;;;;;;;;;;-1.18;79.32;103682.45;104182;1300;80397;-77
2023/02/08 01:50:00;;;;;;;;;;;;;;;-1.18;79.32;103685.46;104179;1300;61289;-77
2023/02/08 01:52:47;;;;;;;;;;;;;;;-1.18;79.33;103686.15;104209;1300;61987;-77
2023/02/08 01:55:36;;;;;;;;;;;;;;;-1.18;79.31;103687.50;104184;1299;73508;-77
2023/02/08 01:58:24;;;;;;;;;;;;;;;-1.19;79.25;103688.80;104174;1304;67307;-77
2023/02/08 02:01:10;;;;;;;;;;;;;;;-1.22;79.23;103688.92;104103;1300;74028;-78
2023/02/08 02:03:59;;;;;;;;;;;;;;;-1.24;79.25;103690.63;104155;1300;61225;-77
2023/02/08 02:06:47;;;;;;;;;;;;;;;-1.23;79.28;103693.23;104241;1299;62125;-78
2023/02/08 02:09:33;;;;;;;;;;;;;;;-1.23;79.27;103690.14;104148;1299;75433;-77
2023/02/08 02:12:20;;;;;;;;;;;;;;;-1.22;79.24;103687.50;104208;1299;69153;-77
2023/02/08 02:15:07;;;;;;;;;;;;;;;-1.23;79.24;103685.91;104055;1300;71317;-77
2023/02/08 02:17:53;;;;;;;;;;;;;;;-1.24;79.24;103681.10;104052;1302;60707;-77
2023/02/08 02:20:48;;;;;;;;;;;;;;;-1.24;79.21;103685.67;104137;1300;59944;-77
2023/02/08 02:24:07;;;;;;;;;;;;;;;-1.25;79.18;103688.14;104241;1294;75349;-78
2023/02/08 02:27:13;;;;;;;;;;;;;;;-1.26;79.17;103682.81;104285;1303;69382;-77
2023/02/08 02:30:31;;;;;;;;;;;;;;;-1.28;79.02;103680.73;104112;1300;71312;-77
2023/02/08 02:33:50;;;;;;;;;;;;;;;-1.33;79.07;103680.73;103816;1308;62064;-77
2023/02/08 02:36:55;;;;;;;;;;;;;;;-1.35;79.16;103682.80;103141;1312;59926;-78
2023/02/08 02:39:57;;;;;;;;;;;;;;;-1.36;79.15;103679.80;103089;1312;75995;-77
2023/02/08 02:45:59;;;;;;;;;;;;;;;-1.40;79.05;103680.63;103071;1311;71463;-77
2023/02/08 02:48:45;;;;;;;;;;;;;;;-1.44;79.04;103679.84;103071;1316;60365;-77
2023/02/08 02:51:51;;;;;;;;;;;;;;;-1.44;79.08;103675.60;102896;1317;300056;-77
2023/02/08 02:54:40;;;;;;;;;;;;;;;-1.44;79.21;103679.68;102424;1318;76096;-77
2023/02/08 02:57:28;;;;;;;;;;;;;;;-1.42;79.12;103680.65;102541;1317;67443;-77
2023/02/08 03:00:20;;;;;;;;;;;;;;;-1.41;79.08;103683.96;102541;1317;71341;-77
2023/02/08 03:03:17;;;;;;;;;;;;;;;-1.39;79.15;103688.33;102831;1316;61252;-77
2023/02/08 03:06:13;;;;;;;;;;;;;;;-1.38;79.17;103692.52;103006;1313;61530;-77
2023/02/08 03:09:23;;;;;;;;;;;;;;;-1.37;79.12;103694.65;103309;1306;73994;-77
2023/02/08 03:12:22;;;;;;;;;;;;;;;-1.36;79.08;103694.58;103321;1305;67365;-77
2023/02/08 03:15:27;;;;;;;;;;;;;;;-1.34;79.12;103699.40;103539;1308;70641;-77
2023/02/08 03:18:36;;;;;;;;;;;;;;;-1.35;79.11;103700.41;103624;1307;60130;-77
2023/02/08 03:21:58;;;;;;;;;;;;;;;-1.34;79.06;103701.98;103062;1315;59645;-77
2023/02/08 03:24:50;;;;;;;;;;;;;;;-1.33;79.09;103702.70;102583;1316;74423;-77
2023/02/08 03:27:47;;;;;;;;;;;;;;;-1.32;79.01;103708.89;102581;1317;68696;-77
2023/02/08 03:31:02;;;;;;;;;;;;;;;-1.34;79.05;103710.59;102562;1318;71322;-77
2023/02/08 03:33:52;;;;;;;;;;;;;;;-1.38;78.96;103711.30;103102;1317;61390;-77
2023/02/08 03:36:59;;;;;;;;;;;;;;;-1.41;78.94;103712.58;103013;1316;59678;-77
2023/02/08 03:39:46;;;;;;;;;;;;;;;-1.43;79.01;103710.17;102515;1320;72374;-77
2023/02/08 03:42:34;;;;;;;;;;;;;;;-1.43;78.98;103711.20;102603;1320;68680;-78
2023/02/08 03:45:25;;;;;;;;;;;;;;;-1.43;78.97;103708.13;102547;1320;70672;-77
2023/02/08 03:48:13;;;;;;;;;;;;;;;-1.42;78.99;103708.77;102588;1316;61177;-77
2023/02/08 03:51:00;;;;;;;;;;;;;;;-1.42;79.02;103704.53;102925;1317;59999;-77
2023/02/08 03:53:47;;;;;;;;;;;;;;;-1.43;78.95;103707.63;102906;1313;76047;-77
2023/02/08 03:56:43;;;;;;;;;;;;;;;-1.44;78.96;103712.30;102893;1315;69280;-77
2023/02/08 03:59:31;;;;;;;;;;;;;;;-1.44;79.00;103714.35;103786;1300;72123;-77
2023/02/08 04:02:19;;;;;;;;;;;;;;;-1.44;78.88;103713.16;103968;1302;61325;-77
2023/02/08 04:05:06;;;;;;;;;;;;;;;-1.44;78.99;103711.11;103992;1300;61968;-77
2023/02/08 04:07:53;;;;;;;;;;;;;;;-1.46;78.91;103708.44;104159;1300;73747;-77
2023/02/08 04:10:39;;;;;;;;;;;;;;;-1.48;78.89;103715.70;105166;1299;68033;-77
2023/02/08 04:13:25;;;;;;;;;;;;;;;-1.51;78.80;103715.27;105073;1300;72022;-77
2023/02/08 04:16:11;;;;;;;;;;;;;;;-1.56;78.83;103713.48;105207;1293;59145;-77
2023/02/08 04:18:57;;;;;;;;;;;;;;;-1.61;78.79;103714.45;105787;1293;59648;-77
2023/02/08 04:21:43;;;;;;;;;;;;;;;-1.66;78.75;103712.05;105688;1294;73429;-78
2023/02/08 04:24:29;;;;;;;;;;;;;;;-1.71;78.82;103709.08;105666;1292;68420;-77
2023/02/08 04:27:15;;;;;;;;;;;;;;;-1.72;78.88;103709.98;105703;1294;71866;-77
2023/02/08 04:30:01;;;;;;;;;;;;;;;-1.72;78.90;103709.86;105809;1293;59326;-78
2023/02/08 04:32:47;;;;;;;;;;;;;;;-1.72;78.88;103711.86;105026;1294;59245;-77
2023/02/08 04:35:33;;;;;;;;;;;;;;;-1.69;78.89;103711.23;104744;1294;73254;-77
2023/02/08 04:38:19;;;;;;;;;;;;;;;-1.72;78.86;103702.53;104729;1292;67933;-77
2023/02/08 04:41:05;;;;;;;;;;;;;;;-1.73;78.93;103700.45;104639;1294;71264;-77
2023/02/08 04:43:51;;;;;;;;;;;;;;;-1.71;78.98;103696.73;104734;1294;61293;-77
2023/02/08 04:46:37;;;;;;;;;;;;;;;-1.70;78.88;103700.41;104737;1293;61259;-77
2023/02/08 04:49:23;;;;;;;;;;;;;;;-1.71;78.93;103704.17;104747;1293;73544;-77
2023/02/08 04:52:09;;;;;;;;;;;;;;;-1.71;78.95;103705.39;104755;1293;67298;-77
2023/02/08 04:54:55;;;;;;;;;;;;;;;-1.69;78.91;103708.58;104645;1299;71540;-77
2023/02/08 04:57:41;;;;;;;;;;;;;;;-1.67;78.92;103709.44;104718;1296;61242;-77
2023/02/08 05:00:28;;;;;;;;;;;;;;;-1.65;78.95;103712.73;104850;1294;60595;-78
2023/02/08 05:03:14;;;;;;;;;;;;;;;-1.64;79.00;103708.75;104808;1293;74983;-77
2023/02/08 05:06:00;;;;;;;;;;;;;;;-1.62;78.97;103718.21;104740;1292;68185;-77
2023/02/08 05:08:46;;;;;;;;;;;;;;;-1.62;78.91;103713.34;104759;1295;72373;-77
2023/02/08 05:11:32;;;;;;;;;;;;;;;-1.65;78.92;103714.27;104683;1293;61692;-77
2023/02/08 05:14:19;;;;;;;;;;;;;;;-1.65;78.96;103716.61;104699;1295;61135;-77
2023/02/08 05:17:05;;;;;;;;;;;;;;;-1.68;78.81;103719.35;104769;1295;75132;-77
2023/02/08 05:19:51;;;;;;;;;;;;;;;-1.71;78.87;103721.61;104749;1293;71417;-77
2023/02/08 05:22:37;;;;;;;;;;;;;;;-1.75;78.86;103724.12;104592;1292;71312;-77
2023/02/08 05:25:24;;;;;;;;;;;;;;;-1.75;78.94;103730.91;104575;1298;61082;-77
2023/02/08 05:28:10;;;;;;;;;;;;;;;-1.73;78.95;103729.16;104770;1297;59155;-78
2023/02/08 05:30:55;;;;;;;;;;;;;;;-1.70;79.00;103740.41;104752;1291;73414;-78
2023/02/08 05:33:42;;;;;;;;;;;;;;;-1.68;78.93;103744.97;104732;1296;67164;-77
2023/02/08 05:36:28;;;;;;;;;;;;;;;-1.70;78.90;103744.55;104757;1297;72939;-77
2023/02/08 05:39:14;;;;;;;;;;;;;;;-1.71;78.83;103741.02;104792;1295;61366;-77
2023/02/08 05:42:00;;;;;;;;;;;;;;;-1.70;78.89;103743.80;104723;1295;60061;-77
2023/02/08 05:44:46;;;;;;;;;;;;;;;-1.71;78.90;103747.94;104677;1295;74574;-77
2023/02/08 05:47:32;;;;;;;;;;;;;;;-1.71;78.90;103753.02;104749;1293;71514;-77
2023/02/08 05:50:18;;;;;;;;;;;;;;;-1.71;78.82;103752.86;104665;1294;70965;-77
2023/02/08 05:53:04;;;;;;;;;;;;;;;-1.70;78.79;103758.52;104769;1297;61094;-77
2023/02/08 05:55:50;;;;;;;;;;;;;;;-1.72;78.82;103759.69;104804;1292;61046;-78
2023/02/08 05:58:36;;;;;;;;;;;;;;;-1.72;78.84;103760.70;104833;1295;73451;-77
2023/02/08 06:01:23;;;;;;;;;;;;;;;-1.70;78.88;103763.09;104723;1296;67350;-78
2023/02/08 06:04:09;;;;;;;;;;;;;;;-1.69;78.78;103760.47;104628;1297;71294;-78
2023/02/08 06:06:55;;;;;;;;;;;;;;;-1.68;78.85;103765.49;104749;1295;61067;-78
2023/02/08 06:09:41;;;;;;;;;;;;;;;-1.66;78.86;103763.58;104705;1294;61155;-78
2023/02/08 06:12:27;;;;;;;;;;;;;;;-1.64;78.92;103764.56;104717;1295;73238;-78
2023/02/08 06:15:13;;;;;;;;;;;;;;;-1.64;78.82;103770.33;104733;1296;67329;-78
2023/02/08 06:17:59;;;;;;;;;;;;;;;-1.66;78.87;103769.02;104799;1292;75799;-77
2023/02/08 06:20:45;;;;;;;;;;;;;;;-1.68;78.75;103771.89;104733;1295;61119;-78
2023/02/08 06:23:31;;;;;;;;;;;;;;;-1.70;78.76;103772.22;104545;1301;61474;-77
2023/02/08 06:26:17;;;;;;;;;;;;;;;-1.69;78.83;103777.23;104630;1298;73358;-77
2023/02/08 06:29:04;;;;;;;;;;;;;;;-1.69;78.78;103779.27;104689;1293;68649;-78
2023/02/08 06:31:50;;;;;;;;;;;;;;;-1.67;78.90;103784.50;104359;1295;72908;-77
2023/02/08 06:34:36;;;;;;;;;;;;;;;-1.67;78.87;103783.70;104750;1292;61192;-77
2023/02/08 06:37:22;;;;;;;;;;;;;;;-1.65;78.88;103786.35;104779;1295;61067;-77
2023/02/08 06:40:09;;;;;;;;;;;;;;;-1.64;78.84;103787.39;104616;1297;73387;-78
2023/02/08 06:42:55;;;;;;;;;;;;;;;-1.66;78.80;103789.45;104648;1297;67323;-78
2023/02/08 06:45:43;;;;;;;;;;;;;;;-1.66;78.82;103787.80;104764;1296;70216;-77
2023/02/08 06:48:30;;;;;;;;;;;;;;;-1.67;78.83;103786.52;104618;1297;61271;-77
2023/02/08 06:51:16;;;;;;;;;;;;;;;-1.69;78.63;103785.54;104615;1299;61290;-78
2023/02/08 06:54:02;;;;;;;;;;;;;;;-1.69;78.72;103783.68;104731;1296;75952;-77
2023/02/08 06:56:48;;;;;;;;;;;;;;;-1.69;78.67;103787.36;104586;1295;67316;-77
2023/02/08 06:59:34;;;;;;;;;;;;;;;-1.69;78.65;103790.25;104708;1298;72546;-77
2023/02/08 07:02:20;;;;;;;;;;;;;;;-1.69;78.65;103790.56;104731;1292;62305;-77
2023/02/08 07:05:07;;;;;;;;;;;;;;;-1.70;78.59;103795.78;104802;1292;59687;-77
2023/02/08 07:07:53;;;;;;;;;;;;;;;-1.71;78.65;103799.59;104791;1297;73326;-78
2023/02/08 07:10:39;;;;;;;;;;;;;;;-1.73;78.63;103797.33;104758;1297;68486;-77
2023/02/08 07:13:25;;;;;;;;;;;;;;;-1.71;78.64;103797.98;104654;1293;71223;-77
2023/02/08 07:16:11;;;;;;;;;;;;;;;-1.69;78.70;103795.98;104676;1292;59453;-77
2023/02/08 07:18:57;;;;;;;;;;;;;;;-1.68;78.62;103791.16;104734;1293;61507;-77
2023/02/08 07:21:44;;;;;;;;;;;;;;;-1.67;78.67;103787.70;104705;1297;73940;-77
2023/02/08 07:24:31;;;;;;;;;;;;;;;-1.65;78.69;103785.67;104754;1293;67226;-78
2023/02/08 07:27:17;;;;;;;;;;;;;;;-1.61;78.72;103782.08;104780;1291;72106;-78
2023/02/08 07:30:03;;;;;;;;;;;;;;;-1.58;78.73;103782.55;104736;1296;61329;-77
2023/02/08 07:32:49;;;;;;;;;;;;;;;-1.53;78.66;103778.52;104761;1294;61306;-77
2023/02/08 07:35:35;;;;;;;;;;;;;;;-1.48;78.63;103775.86;104616;1296;75076;-78
2023/02/08 07:38:21;;;;;;;;;;;;;;;-1.45;78.64;103773.28;104703;1292;68394;-77
2023/02/08 07:41:09;;;;;;;;;;;;;;;-1.42;78.60;103774.20;104804;1294;71380;-77
2023/02/08 07:43:58;;;;;;;;;;;;;;;-1.38;78.66;103766.48;104649;1293;60759;-77
2023/02/08 07:46:44;;;;;;;;;;;;;;;-1.30;78.65;103764.23;104702;1291;61204;-77
2023/02/08 07:49:31;;;;;;;;;;;;;;;-1.23;78.62;103760.21;105867;1295;74540;-78
2023/02/08 07:52:17;;;;;;;;;;;;;;;-1.19;78.56;103765.97;105666;1294;67938;-78
2023/02/08 07:55:03;;;;;;;;;;;;;;;-1.14;78.60;103772.50;105826;1293;72402;-78
2023/02/08 07:57:49;;;;;;;;;;;;;;;-1.08;78.57;103774.39;105643;1293;59316;-78
2023/02/08 08:00:36;;;;;;;;;;;;;;;-1.01;78.51;103774.08;105693;1291;59144;-78
2023/02/08 08:03:23;;;;;;;;;;;;;;;-0.95;78.48;103773.31;105717;1291;75049;-78
2023/02/08 08:06:09;;;;;;;;;;;;;;;-0.93;78.43;103770.30;105803;1292;67588;-78
2023/02/08 08:08:55;;;;;;;;;;;;;;;-0.89;78.43;103773.68;104737;1295;72788;-77
2023/02/08 08:11:41;;;;;;;;;;;;;;;-0.82;78.48;103770.31;104540;1293;59346;-78
2023/02/08 08:14:28;;;;;;;;;;;;;;;-0.75;78.44;103772.27;104634;1297;61147;-77
2023/02/08 08:17:14;;;;;;;;;;;;;;;-0.68;78.46;103775.03;104752;1294;73118;-78
2023/02/08 08:20:00;;;;;;;;;;;;;;;-0.59;78.50;103773.69;104650;1297;67218;-77
2023/02/08 08:22:46;;;;;;;;;;;;;;;-0.51;78.46;103776.02;104769;1295;71195;-78
2023/02/08 08:25:32;;;;;;;;;;;;;;;-0.43;78.50;103778.17;104581;1297;61195;-78
2023/02/08 08:28:19;;;;;;;;;;;;;;;-0.33;78.50;103772.58;104638;1292;59994;-78
2023/02/08 08:31:16;;;;;;;;;;;;;;;-0.25;78.40;103767.96;104739;1294;74783;-77
2023/02/08 08:34:02;;;;;;;;;;;;;;;-0.16;78.45;103773.39;104631;1293;68109;-78
2023/02/08 08:36:48;;;;;;;;;;;;;;;-0.04;78.48;103773.20;104695;1294;71456;-78
2023/02/08 08:39:35;;;;;;;;;;;;;;;0.06;78.48;103767.80;104578;1291;61244;-77
2023/02/08 08:42:22;;;;;;;;;;;;;;;0.14;78.44;103771.30;104772;1292;59656;-77
2023/02/08 08:45:09;;;;;;;;;;;;;;;0.17;78.42;103775.45;104635;1292;74725;-78
2023/02/08 08:47:55;;;;;;;;;;;;;;;0.20;78.41;103775.50;105812;1291;68429;-78
2023/02/08 08:50:41;;;;;;;;;;;;;;;0.20;78.35;103774.96;105831;1291;72604;-78
2023/02/08 08:53:28;;;;;;;;;;;;;;;0.19;78.34;103778.33;105732;1292;59228;-78
2023/02/08 08:56:13;;;;;;;;;;;;;;;0.17;78.27;103776.29;105795;1294;59299;-77
2023/02/08 08:59:00;;;;;;;;;;;;;;;0.13;78.26;103771.40;105769;1292;74033;-78
2023/02/08 09:01:46;;;;;;;;;;;;;;;0.10;78.19;103770.14;105533;1294;67448;-78
2023/02/08 09:04:32;;;;;;;;;;;;;;;0.08;78.24;103769.09;105721;1293;72800;-78
2023/02/08 09:07:19;;;;;;;;;;;;;;;0.08;78.29;103774.91;105598;1292;59056;-78
2023/02/08 09:10:05;;;;;;;;;;;;;;;0.08;78.32;103776.08;105818;1294;59816;-78
2023/02/08 09:12:51;;;;;;;;;;;;;;;0.08;78.20;103781.48;105800;1291;73511;-78
2023/02/08 09:15:39;;;;;;;;;;;;;;;0.06;78.19;103783.75;105852;1292;67183;-78
2023/02/08 09:18:25;;;;;;;;;;;;;;;0.08;78.22;103791.38;105740;1293;73154;-79
2023/02/08 09:21:12;;;;;;;;;;;;;;;0.11;78.29;103790.70;105817;1293;59498;-78
2023/02/08 09:24:02;;;;;;;;;;;;;;;0.12;78.25;103788.41;105777;1292;59666;-79
2023/02/08 09:26:48;;;;;;;;;;;;;;;0.14;78.27;103791.16;105699;1293;72245;-79
2023/02/08 09:29:34;;;;;;;;;;;;;;;0.15;78.15;103796.02;105708;1292;68399;-78
2023/02/08 09:32:21;;;;;;;;;;;;;;;0.16;78.09;103797.21;105783;1293;71389;-78
2023/02/08 09:35:07;;;;;;;;;;;;;;;0.17;78.15;103796.29;105783;1295;58929;-77
2023/02/08 09:37:56;;;;;;;;;;;;;;;0.19;78.03;103794.92;105791;1292;59036;-78
2023/02/08 09:40:52;;;;;;;;;;;;;;;0.21;78.08;103792.70;105686;1292;73414;-81
2023/02/08 09:43:47;;;;;;;;;;;;;;;0.25;78.13;103786.23;105836;1292;67505;-80
2023/02/08 09:46:37;;;;;;;;;;;;;;;0.29;78.13;103781.81;105530;1292;71497;-80
2023/02/08 09:49:27;;;;;;;;;;;;;;;0.32;78.09;103791.05;104537;1292;61543;-80
2023/02/08 09:52:16;;;;;;;;;;;;;;;0.37;78.08;103792.07;104643;1293;63758;-80
2023/02/08 09:55:09;;;;;;;;;;;;;;;0.41;78.10;103785.58;104600;1294;73360;-80
2023/02/08 09:57:56;;;;;;;;;;;;;;;0.45;78.16;103782.55;104608;1297;67382;-80
2023/02/08 10:00:45;;;;;;;;;;;;;;;0.49;78.17;103784.19;104610;1293;73005;-80
2023/02/08 10:03:38;;;;;;;;;;;;;;;0.51;78.14;103782.48;104713;1294;61724;-78
2023/02/08 10:06:24;;;;;;;;;;;;;;;0.55;78.01;103779.66;104772;1293;61193;-76
2023/02/08 10:09:13;;;;;;;;;;;;;;;0.58;77.95;103772.61;104599;1294;74040;-77
2023/02/08 10:12:19;;;;;;;;;;;;;;;0.59;77.93;103764.91;104783;1296;70072;-77
2023/02/08 10:15:14;;;;;;;;;;;;;;;0.62;78.04;103761.73;104204;1301;71095;-77
2023/02/08 10:18:30;;;;;;;;;;;;;;;0.65;78.03;103763.80;104297;1297;59712;-77
2023/02/08 10:21:51;;;;;;;;;;;;;;;0.66;77.94;103757.30;103614;1311;61241;-76
2023/02/08 10:24:56;;;;;;;;;;;;;;;0.71;77.86;103755.06;102923;1314;73483;-76
2023/02/08 10:27:53;;;;;;;;;;;;;;;0.75;77.85;103753.17;102881;1317;67382;-77
2023/02/08 10:31:02;;;;;;;;;;;;;;;0.80;77.82;103748.42;102865;1317;71452;-77
2023/02/08 10:34:12;;;;;;;;;;;;;;;0.84;77.95;103744.31;102734;1316;62075;-77
2023/02/08 10:37:00;;;;;;;;;;;;;;;0.89;77.86;103745.36;102351;1317;61202;-76
2023/02/08 10:39:47;;;;;;;;;;;;;;;0.93;77.88;103744.83;102369;1321;73410;-76
2023/02/08 10:42:35;;;;;;;;;;;;;;;0.96;77.86;103743.50;102289;1318;68574;-80
2023/02/08 10:45:26;;;;;;;;;;;;;;;0.99;77.80;103745.10;102334;1317;71373;-77
2023/02/08 10:48:28;;;;;;;;;;;;;;;1.01;77.68;103738.99;102431;1318;61936;-76
2023/02/08 10:51:15;;;;;;;;;;;;;;;1.06;77.84;103735.05;102399;1317;61327;-76
2023/02/08 10:54:02;;;;;;;;;;;;;;;1.11;77.61;103729.15;102843;1314;73694;-77
2023/02/08 10:56:56;;;;;;;;;;;;;;;1.13;77.63;103729.83;102885;1309;67368;-77
2023/02/08 10:59:50;;;;;;;;;;;;;;;1.17;77.70;103731.48;103885;1303;71490;-77
2023/02/08 11:02:41;;;;;;;;;;;;;;;1.22;77.71;103728.92;103991;1302;59815;-76
2023/02/08 11:05:50;;;;;;;;;;;;;;;1.26;77.66;103731.61;103939;1308;60990;-77
2023/02/08 11:08:52;;;;;;;;;;;;;;;1.28;77.61;103734.16;103684;1309;72915;-77
2023/02/08 11:11:41;;;;;;;;;;;;;;;1.32;77.54;103729.67;103496;1307;66922;-77
2023/02/08 11:14:38;;;;;;;;;;;;;;;1.37;77.50;103727.74;103956;1300;73221;-76
2023/02/08 11:17:28;;;;;;;;;;;;;;;1.39;77.56;103719.11;104221;1306;61137;-76
2023/02/08 11:20:27;;;;;;;;;;;;;;;1.43;77.50;103714.27;104196;1300;61131;-76
2023/02/08 11:23:21;;;;;;;;;;;;;;;1.47;77.52;103712.50;104243;1302;75023;-76
2023/02/08 11:26:22;;;;;;;;;;;;;;;1.49;77.42;103711.64;104202;1299;68689;-76
2023/02/08 11:29:22;;;;;;;;;;;;;;;1.52;77.40;103714.61;104292;1300;71282;-77
2023/02/08 11:32:16;;;;;;;;;;;;;;;1.56;77.30;103712.98;104210;1299;61476;-77
2023/02/08 11:35:23;;;;;;;;;;;;;;;1.57;77.38;103706.24;104148;1299;62057;-77
2023/02/08 11:38:17;;;;;;;;;;;;;;;1.58;77.09;103706.52;104193;1300;74852;-77
2023/02/08 11:41:12;;;;;;;;;;;;;;;1.60;77.19;103703.05;104190;1301;68237;-77
2023/02/08 11:44:01;;;;;;;;;;;;;;;1.63;77.25;103699.02;104188;1300;70609;-77
2023/02/08 11:46:48;;;;;;;;;;;;;;;1.66;77.23;103697.70;104664;1296;61778;-77
2023/02/08 11:49:40;;;;;;;;;;;;;;;1.66;77.22;103691.95;104734;1292;59435;-77
2023/02/08 11:52:28;;;;;;;;;;;;;;;1.67;77.19;103693.52;104674;1293;73987;-77
2023/02/08 11:55:39;;;;;;;;;;;;;;;1.68;77.17;103695.95;104756;1294;70062;-77
2023/02/08 11:58:25;;;;;;;;;;;;;;;1.68;77.12;103687.95;105005;1300;72408;-77
2023/02/08 12:01:16;;;;;;;;;;;;;;;1.68;77.26;103685.39;104858;1300;59205;-77
2023/02/08 12:04:07;;;;;;;;;;;;;;;1.71;77.25;103684.95;104892;1304;59491;-80
2023/02/08 12:07:26;;;;;;;;;;;;;;;1.74;77.14;103678.38;105067;1299;74681;-80
2023/02/08 12:10:28;;;;;;;;;;;;;;;1.76;77.19;103680.55;104665;1306;68457;-80
2023/02/08 12:13:34;;;;;;;;;;;;;;;1.78;76.95;103676.11;104527;1306;72792;-77
2023/02/08 12:16:43;;;;;;;;;;;;;;;1.79;76.96;103674.63;104146;1309;59827;-77
2023/02/08 12:19:32;;;;;;;;;;;;;;;1.80;76.95;103671.64;103386;1322;59128;-77
2023/02/08 12:22:25;;;;;;;;;;;;;;;1.80;76.80;103669.75;103343;1317;74654;-77
2023/02/08 12:25:17;;;;;;;;;;;;;;;1.83;76.82;103667.92;103271;1317;66765;-77
2023/02/08 12:28:23;;;;;;;;;;;;;;;1.85;76.93;103668.58;103325;1318;71669;-77
2023/02/08 12:31:18;;;;;;;;;;;;;;;1.86;76.91;103665.10;102971;1323;59056;-78
2023/02/08 12:34:16;;;;;;;;;;;;;;;1.87;76.89;103665.18;102996;1324;59694;-78
2023/02/08 12:40:54;;;;;;;;;;;;;;;1.89;76.81;103656.79;103116;1320;67725;-78
2023/02/08 12:44:01;;;;;;;;;;;;;;;1.90;76.73;103656.67;103132;1321;72554;-78
2023/02/08 12:46:50;;;;;;;;;;;;;;;1.91;76.79;103656.41;103361;1320;59211;-78
2023/02/08 12:49:45;;;;;;;;;;;;;;;1.91;76.75;103658.09;103341;1320;59228;-78
2023/02/08 12:52:40;;;;;;;;;;;;;;;1.91;76.79;103656.24;103399;1314;73867;-78
2023/02/08 12:55:30;;;;;;;;;;;;;;;1.93;76.55;103659.44;103726;1308;67302;-78
2023/02/08 12:58:39;;;;;;;;;;;;;;;1.96;76.75;103661.66;104348;1308;71526;-78
2023/02/08 13:01:30;;;;;;;;;;;;;;;1.96;76.57;103655.95;104123;1312;59376;-79
2023/02/08 13:04:19;;;;;;;;;;;;;;;1.96;76.66;103654.24;104117;1312;59287;-79
2023/02/08 13:07:26;;;;;;;;;;;;;;;1.98;76.61;103656.05;104088;1312;74616;-79
2023/02/08 13:10:25;;;;;;;;;;;;;;;1.98;76.67;103655.70;104484;1311;67429;-78
2023/02/08 13:13:15;;;;;;;;;;;;;;;1.94;76.63;103653.23;104578;1311;73033;-78
2023/02/08 13:16:08;;;;;;;;;;;;;;;1.95;76.57;103643.55;104529;1308;59131;-78
2023/02/08 13:18:57;;;;;;;;;;;;;;;1.96;76.68;103643.48;105162;1299;59012;-77
2023/02/08 13:21:44;;;;;;;;;;;;;;;1.98;76.43;103647.69;105125;1299;73463;-78
2023/02/08 13:24:50;;;;;;;;;;;;;;;1.96;76.51;103641.80;105115;1299;67357;-78
2023/02/08 13:27:36;;;;;;;;;;;;;;;1.95;76.57;103642.42;104620;1306;71664;-77
2023/02/08 13:30:23;;;;;;;;;;;;;;;1.97;76.65;103638.09;104506;1306;59465;-78
2023/02/08 13:33:30;;;;;;;;;;;;;;;1.97;76.38;103639.11;103839;1306;59564;-76
2023/02/08 13:36:23;;;;;;;;;;;;;;;1.93;76.46;103635.46;103610;1305;74474;-78
2023/02/08 13:39:29;;;;;;;;;;;;;;;1.93;76.51;103635.27;103964;1302;68132;-77
2023/02/08 13:42:26;;;;;;;;;;;;;;;1.93;76.63;103638.23;103792;1302;71976;-77
2023/02/08 13:45:24;;;;;;;;;;;;;;;1.91;76.46;103632.75;103911;1303;61322;-77
2023/02/08 13:48:11;;;;;;;;;;;;;;;1.86;76.25;103630.75;104012;1303;61160;-77
2023/02/08 13:50:58;;;;;;;;;;;;;;;1.79;76.32;103627.88;103992;1302;73442;-77
2023/02/08 13:53:46;;;;;;;;;;;;;;;1.71;76.36;103630.40;104012;1304;67147;-77
2023/02/08 13:56:35;;;;;;;;;;;;;;;1.65;76.22;103627.40;103990;1302;76953;-78
2023/02/08 13:59:24;;;;;;;;;;;;;;;1.62;76.32;103623.79;103983;1303;59725;-78
2023/02/08 14:02:31;;;;;;;;;;;;;;;1.59;76.34;103624.93;104057;1300;59638;-78
2023/02/08 14:05:36;;;;;;;;;;;;;;;1.54;76.35;103619.36;103913;1299;74004;-78
2023/02/08 14:08:32;;;;;;;;;;;;;;;1.49;76.36;103618.13;104121;1300;68837;-78
2023/02/08 14:11:28;;;;;;;;;;;;;;;1.47;76.25;103611.52;104074;1299;72560;-77
2023/02/08 14:14:49;;;;;;;;;;;;;;;1.46;76.31;103609.45;104107;1300;59722;-78
2023/02/08 14:17:36;;;;;;;;;;;;;;;1.46;76.36;103604.14;96637;1305;10001763;-77
2023/02/08 14:20:22;;;;;;;;;;;;;;;1.47;76.39;103602.51;103852;1306;68210;-77
2023/02/08 14:23:25;;;;;;;;;;;;;;;1.46;76.39;103603.30;103789;1306;71298;-77
2023/02/08 14:26:22;;;;;;;;;;;;;;;1.45;76.26;103603.58;103845;1305;60793;-77
2023/02/08 14:29:19;;;;;;;;;;;;;;;1.40;76.32;103603.23;103745;1305;61665;-77
2023/02/08 14:32:05;;;;;;;;;;;;;;;1.35;76.20;103596.27;103886;1306;73193;-81
2023/02/08 14:35:17;;;;;;;;;;;;;;;1.30;76.24;103592.55;103731;1305;68873;-77
2023/02/08 14:38:18;;;;;;;;;;;;;;;1.26;76.20;103589.23;103879;1307;71913;-78